sensor_id;sensor_type;location;lat;lon;timestamp;P1;durP1;ratioP1;P2;durP2;ratioP2
51838;SDS011;37886;53.174;6.368;2023-11-21T00:01:57;33.03;;;3.33;;
51838;SDS011;37886;53.174;6.368;2023-11-21T00:04:23;32.42;;;3.42;;
51838;SDS011;37886;53.174;6.368;2023-11-21T00:06:49;25.25;;;3.10;;
51838;SDS011;37886;53.174;6.368;2023-11-21T00:09:15;28.83;;;3.13;;
51838;SDS011;37886;53.174;6.368;2023-11-21T00:11:43;29.02;;;3.35;;
51838;SDS011;37886;53.174;6.368;2023-11-21T00:14:09;22.63;;;3.00;;
51838;SDS011;37886;53.174;6.368;2023-11-21T00:16:36;24.98;;;3.58;;
51838;SDS011;37886;53.174;6.368;2023-11-21T00:19:02;36.45;;;4.20;;
51838;SDS011;37886;53.174;6.368;2023-11-21T00:21:28;31.33;;;3.75;;
51838;SDS011;37886;53.174;6.368;2023-11-21T00:23:53;39.70;;;4.25;;
51838;SDS011;37886;53.174;6.368;2023-11-21T00:26:19;31.23;;;4.18;;
51838;SDS011;37886;53.174;6.368;2023-11-21T00:28:45;33.22;;;4.40;;
51838;SDS011;37886;53.174;6.368;2023-11-21T00:31:10;34.45;;;4.15;;
51838;SDS011;37886;53.174;6.368;2023-11-21T00:33:36;30.75;;;4.35;;
51838;SDS011;37886;53.174;6.368;2023-11-21T00:36:02;39.60;;;4.40;;
51838;SDS011;37886;53.174;6.368;2023-11-21T00:38:28;26.98;;;4.30;;
51838;SDS011;37886;53.174;6.368;2023-11-21T00:40:54;37.05;;;4.40;;
51838;SDS011;37886;53.174;6.368;2023-11-21T00:43:24;29.88;;;3.95;;
51838;SDS011;37886;53.174;6.368;2023-11-21T00:45:50;32.30;;;4.32;;
51838;SDS011;37886;53.174;6.368;2023-11-21T00:48:16;34.25;;;4.32;;
51838;SDS011;37886;53.174;6.368;2023-11-21T00:50:43;27.90;;;4.20;;
51838;SDS011;37886;53.174;6.368;2023-11-21T00:53:09;34.33;;;4.18;;
51838;SDS011;37886;53.174;6.368;2023-11-21T00:55:36;27.08;;;4.07;;
51838;SDS011;37886;53.174;6.368;2023-11-21T00:58:02;27.85;;;4.15;;
51838;SDS011;37886;53.174;6.368;2023-11-21T01:00:29;32.67;;;4.63;;
51838;SDS011;37886;53.174;6.368;2023-11-21T01:02:55;39.67;;;4.30;;
51838;SDS011;37886;53.174;6.368;2023-11-21T01:05:21;39.10;;;4.75;;
51838;SDS011;37886;53.174;6.368;2023-11-21T01:07:46;42.75;;;4.80;;
51838;SDS011;37886;53.174;6.368;2023-11-21T01:10:12;28.30;;;4.88;;
51838;SDS011;37886;53.174;6.368;2023-11-21T01:12:38;27.73;;;4.75;;
51838;SDS011;37886;53.174;6.368;2023-11-21T01:15:04;36.03;;;5.40;;
51838;SDS011;37886;53.174;6.368;2023-11-21T01:17:34;39.75;;;5.32;;
51838;SDS011;37886;53.174;6.368;2023-11-21T01:20:00;32.85;;;5.22;;
51838;SDS011;37886;53.174;6.368;2023-11-21T01:22:28;35.67;;;5.68;;
51838;SDS011;37886;53.174;6.368;2023-11-21T01:24:53;33.67;;;5.40;;
51838;SDS011;37886;53.174;6.368;2023-11-21T01:27:19;36.13;;;5.38;;
51838;SDS011;37886;53.174;6.368;2023-11-21T01:29:45;38.70;;;5.57;;
51838;SDS011;37886;53.174;6.368;2023-11-21T01:32:11;34.08;;;5.53;;
51838;SDS011;37886;53.174;6.368;2023-11-21T01:34:37;42.63;;;6.05;;
51838;SDS011;37886;53.174;6.368;2023-11-21T01:37:03;33.50;;;5.70;;
51838;SDS011;37886;53.174;6.368;2023-11-21T01:39:30;39.08;;;5.65;;
51838;SDS011;37886;53.174;6.368;2023-11-21T01:41:56;25.15;;;4.97;;
51838;SDS011;37886;53.174;6.368;2023-11-21T01:44:26;46.40;;;5.60;;
51838;SDS011;37886;53.174;6.368;2023-11-21T01:46:52;32.22;;;4.85;;
51838;SDS011;37886;53.174;6.368;2023-11-21T01:49:19;30.27;;;4.70;;
51838;SDS011;37886;53.174;6.368;2023-11-21T01:51:46;28.02;;;4.75;;
51838;SDS011;37886;53.174;6.368;2023-11-21T01:54:14;34.05;;;4.63;;
51838;SDS011;37886;53.174;6.368;2023-11-21T01:56:46;32.58;;;5.35;;
51838;SDS011;37886;53.174;6.368;2023-11-21T01:59:14;28.45;;;4.53;;
51838;SDS011;37886;53.174;6.368;2023-11-21T02:01:43;28.88;;;5.03;;
51838;SDS011;37886;53.174;6.368;2023-11-21T02:04:09;25.63;;;4.55;;
51838;SDS011;37886;53.174;6.368;2023-11-21T02:06:35;29.02;;;4.75;;
51838;SDS011;37886;53.174;6.368;2023-11-21T02:09:00;33.78;;;4.80;;
51838;SDS011;37886;53.174;6.368;2023-11-21T02:11:26;27.77;;;4.90;;
51838;SDS011;37886;53.174;6.368;2023-11-21T02:13:55;31.58;;;4.80;;
51838;SDS011;37886;53.174;6.368;2023-11-21T02:16:23;27.52;;;4.47;;
51838;SDS011;37886;53.174;6.368;2023-11-21T02:18:49;34.92;;;4.60;;
51838;SDS011;37886;53.174;6.368;2023-11-21T02:21:17;35.53;;;5.18;;
51838;SDS011;37886;53.174;6.368;2023-11-21T02:23:44;33.08;;;5.43;;
51838;SDS011;37886;53.174;6.368;2023-11-21T02:26:12;32.05;;;5.03;;
51838;SDS011;37886;53.174;6.368;2023-11-21T02:28:39;31.17;;;5.30;;
51838;SDS011;37886;53.174;6.368;2023-11-21T02:31:05;35.00;;;5.05;;
51838;SDS011;37886;53.174;6.368;2023-11-21T02:33:33;31.10;;;4.85;;
51838;SDS011;37886;53.174;6.368;2023-11-21T02:35:59;28.80;;;5.20;;
51838;SDS011;37886;53.174;6.368;2023-11-21T02:38:25;38.17;;;5.72;;
51838;SDS011;37886;53.174;6.368;2023-11-21T02:40:51;33.38;;;4.90;;
51838;SDS011;37886;53.174;6.368;2023-11-21T02:43:17;35.33;;;5.00;;
51838;SDS011;37886;53.174;6.368;2023-11-21T02:45:42;31.55;;;5.22;;
51838;SDS011;37886;53.174;6.368;2023-11-21T02:48:08;40.33;;;5.72;;
51838;SDS011;37886;53.174;6.368;2023-11-21T02:50:34;51.65;;;6.07;;
51838;SDS011;37886;53.174;6.368;2023-11-21T02:53:00;41.50;;;6.07;;
51838;SDS011;37886;53.174;6.368;2023-11-21T02:55:27;50.53;;;6.35;;
51838;SDS011;37886;53.174;6.368;2023-11-21T02:57:53;62.65;;;7.20;;
51838;SDS011;37886;53.174;6.368;2023-11-21T03:00:21;74.38;;;7.93;;
51838;SDS011;37886;53.174;6.368;2023-11-21T03:02:49;64.88;;;7.30;;
51838;SDS011;37886;53.174;6.368;2023-11-21T03:05:15;73.57;;;8.15;;
51838;SDS011;37886;53.174;6.368;2023-11-21T03:07:40;58.28;;;8.02;;
51838;SDS011;37886;53.174;6.368;2023-11-21T03:10:07;50.03;;;7.40;;
51838;SDS011;37886;53.174;6.368;2023-11-21T03:12:39;60.00;;;7.55;;
51838;SDS011;37886;53.174;6.368;2023-11-21T03:15:06;49.63;;;7.63;;
51838;SDS011;37886;53.174;6.368;2023-11-21T03:17:32;58.72;;;8.13;;
51838;SDS011;37886;53.174;6.368;2023-11-21T03:20:01;65.63;;;8.38;;
51838;SDS011;37886;53.174;6.368;2023-11-21T03:22:28;76.45;;;8.27;;
51838;SDS011;37886;53.174;6.368;2023-11-21T03:24:53;64.40;;;8.00;;
51838;SDS011;37886;53.174;6.368;2023-11-21T03:27:19;69.43;;;8.27;;
51838;SDS011;37886;53.174;6.368;2023-11-21T03:29:45;57.55;;;8.65;;
51838;SDS011;37886;53.174;6.368;2023-11-21T03:32:12;61.17;;;8.65;;
51838;SDS011;37886;53.174;6.368;2023-11-21T03:34:52;58.08;;;8.73;;
51838;SDS011;37886;53.174;6.368;2023-11-21T03:37:20;72.45;;;8.80;;
51838;SDS011;37886;53.174;6.368;2023-11-21T03:39:46;75.45;;;9.20;;
51838;SDS011;37886;53.174;6.368;2023-11-21T03:42:12;72.47;;;9.38;;
51838;SDS011;37886;53.174;6.368;2023-11-21T03:44:38;58.05;;;8.70;;
51838;SDS011;37886;53.174;6.368;2023-11-21T03:47:03;69.68;;;9.27;;
51838;SDS011;37886;53.174;6.368;2023-11-21T03:49:30;78.85;;;8.93;;
51838;SDS011;37886;53.174;6.368;2023-11-21T03:51:56;74.03;;;8.98;;
51838;SDS011;37886;53.174;6.368;2023-11-21T03:54:21;74.32;;;9.23;;
51838;SDS011;37886;53.174;6.368;2023-11-21T03:56:47;66.65;;;8.57;;
51838;SDS011;37886;53.174;6.368;2023-11-21T03:59:13;59.63;;;9.13;;
51838;SDS011;37886;53.174;6.368;2023-11-21T04:01:39;63.67;;;8.77;;
51838;SDS011;37886;53.174;6.368;2023-11-21T04:04:04;71.30;;;9.82;;
51838;SDS011;37886;53.174;6.368;2023-11-21T04:06:30;52.33;;;8.98;;
51838;SDS011;37886;53.174;6.368;2023-11-21T04:08:58;55.25;;;9.38;;
51838;SDS011;37886;53.174;6.368;2023-11-21T04:11:24;46.28;;;8.60;;
51838;SDS011;37886;53.174;6.368;2023-11-21T04:13:49;61.40;;;9.30;;
51838;SDS011;37886;53.174;6.368;2023-11-21T04:16:15;56.38;;;9.07;;
51838;SDS011;37886;53.174;6.368;2023-11-21T04:18:41;49.00;;;9.25;;
51838;SDS011;37886;53.174;6.368;2023-11-21T04:21:07;53.28;;;9.05;;
51838;SDS011;37886;53.174;6.368;2023-11-21T04:23:33;52.75;;;9.73;;
51838;SDS011;37886;53.174;6.368;2023-11-21T04:26:00;62.08;;;9.32;;
51838;SDS011;37886;53.174;6.368;2023-11-21T04:28:27;54.72;;;9.75;;
51838;SDS011;37886;53.174;6.368;2023-11-21T04:30:53;44.25;;;8.63;;
51838;SDS011;37886;53.174;6.368;2023-11-21T04:33:19;50.75;;;9.20;;
51838;SDS011;37886;53.174;6.368;2023-11-21T04:35:44;45.70;;;8.90;;
51838;SDS011;37886;53.174;6.368;2023-11-21T04:38:11;51.17;;;9.10;;
51838;SDS011;37886;53.174;6.368;2023-11-21T04:40:37;51.15;;;9.18;;
51838;SDS011;37886;53.174;6.368;2023-11-21T04:43:02;51.00;;;9.18;;
51838;SDS011;37886;53.174;6.368;2023-11-21T04:45:29;41.15;;;8.45;;
51838;SDS011;37886;53.174;6.368;2023-11-21T04:47:55;57.63;;;9.50;;
51838;SDS011;37886;53.174;6.368;2023-11-21T04:50:21;50.90;;;8.95;;
51838;SDS011;37886;53.174;6.368;2023-11-21T04:52:47;52.83;;;8.60;;
51838;SDS011;37886;53.174;6.368;2023-11-21T04:55:13;34.85;;;7.40;;
51838;SDS011;37886;53.174;6.368;2023-11-21T04:57:40;41.15;;;7.82;;
51838;SDS011;37886;53.174;6.368;2023-11-21T05:00:07;44.28;;;7.55;;
51838;SDS011;37886;53.174;6.368;2023-11-21T05:02:34;44.72;;;7.75;;
51838;SDS011;37886;53.174;6.368;2023-11-21T05:05:00;58.13;;;8.18;;
51838;SDS011;37886;53.174;6.368;2023-11-21T05:07:27;53.17;;;9.73;;
51838;SDS011;37886;53.174;6.368;2023-11-21T05:09:55;62.50;;;8.93;;
51838;SDS011;37886;53.174;6.368;2023-11-21T05:12:24;46.70;;;8.70;;
51838;SDS011;37886;53.174;6.368;2023-11-21T05:14:50;52.30;;;8.52;;
51838;SDS011;37886;53.174;6.368;2023-11-21T05:17:16;51.95;;;8.35;;
51838;SDS011;37886;53.174;6.368;2023-11-21T05:19:42;42.65;;;7.97;;
51838;SDS011;37886;53.174;6.368;2023-11-21T05:22:10;35.72;;;7.75;;
51838;SDS011;37886;53.174;6.368;2023-11-21T05:24:37;38.05;;;6.90;;
51838;SDS011;37886;53.174;6.368;2023-11-21T05:27:04;39.97;;;7.22;;
51838;SDS011;37886;53.174;6.368;2023-11-21T05:29:30;29.45;;;6.47;;
51838;SDS011;37886;53.174;6.368;2023-11-21T05:31:56;27.33;;;6.50;;
51838;SDS011;37886;53.174;6.368;2023-11-21T05:34:22;29.10;;;6.72;;
51838;SDS011;37886;53.174;6.368;2023-11-21T05:36:49;30.40;;;6.60;;
51838;SDS011;37886;53.174;6.368;2023-11-21T05:39:15;31.38;;;6.80;;
51838;SDS011;37886;53.174;6.368;2023-11-21T05:41:42;46.40;;;7.72;;
51838;SDS011;37886;53.174;6.368;2023-11-21T05:44:08;35.00;;;7.05;;
51838;SDS011;37886;53.174;6.368;2023-11-21T05:46:34;35.63;;;7.00;;
51838;SDS011;37886;53.174;6.368;2023-11-21T05:49:00;31.83;;;6.82;;
51838;SDS011;37886;53.174;6.368;2023-11-21T05:51:25;27.73;;;7.20;;
51838;SDS011;37886;53.174;6.368;2023-11-21T05:53:51;24.52;;;6.20;;
51838;SDS011;37886;53.174;6.368;2023-11-21T05:56:17;32.97;;;7.18;;
51838;SDS011;37886;53.174;6.368;2023-11-21T05:58:43;30.42;;;7.38;;
51838;SDS011;37886;53.174;6.368;2023-11-21T06:01:09;29.85;;;7.60;;
51838;SDS011;37886;53.174;6.368;2023-11-21T06:03:38;30.20;;;8.02;;
51838;SDS011;37886;53.174;6.368;2023-11-21T06:06:04;33.63;;;7.57;;
51838;SDS011;37886;53.174;6.368;2023-11-21T06:08:30;33.53;;;8.13;;
51838;SDS011;37886;53.174;6.368;2023-11-21T06:10:56;27.92;;;8.10;;
51838;SDS011;37886;53.174;6.368;2023-11-21T06:13:21;39.20;;;9.52;;
51838;SDS011;37886;53.174;6.368;2023-11-21T06:15:49;36.42;;;9.73;;
51838;SDS011;37886;53.174;6.368;2023-11-21T06:18:16;35.03;;;8.80;;
51838;SDS011;37886;53.174;6.368;2023-11-21T06:20:44;32.60;;;9.10;;
51838;SDS011;37886;53.174;6.368;2023-11-21T06:23:11;34.92;;;9.50;;
51838;SDS011;37886;53.174;6.368;2023-11-21T06:25:36;45.63;;;10.25;;
51838;SDS011;37886;53.174;6.368;2023-11-21T06:28:03;43.65;;;10.25;;
51838;SDS011;37886;53.174;6.368;2023-11-21T06:30:28;55.65;;;10.38;;
51838;SDS011;37886;53.174;6.368;2023-11-21T06:32:54;43.85;;;10.35;;
51838;SDS011;37886;53.174;6.368;2023-11-21T06:35:21;52.22;;;10.93;;
51838;SDS011;37886;53.174;6.368;2023-11-21T06:37:47;46.78;;;10.70;;
51838;SDS011;37886;53.174;6.368;2023-11-21T06:40:13;43.63;;;10.30;;
51838;SDS011;37886;53.174;6.368;2023-11-21T06:42:40;40.28;;;9.68;;
51838;SDS011;37886;53.174;6.368;2023-11-21T06:45:06;38.03;;;9.60;;
51838;SDS011;37886;53.174;6.368;2023-11-21T06:47:33;35.65;;;9.20;;
51838;SDS011;37886;53.174;6.368;2023-11-21T06:49:58;36.90;;;9.00;;
51838;SDS011;37886;53.174;6.368;2023-11-21T06:52:25;38.33;;;8.48;;
51838;SDS011;37886;53.174;6.368;2023-11-21T06:54:51;36.42;;;9.18;;
51838;SDS011;37886;53.174;6.368;2023-11-21T06:57:17;42.08;;;9.10;;
51838;SDS011;37886;53.174;6.368;2023-11-21T06:59:43;51.40;;;9.60;;
51838;SDS011;37886;53.174;6.368;2023-11-21T07:02:09;41.58;;;10.30;;
51838;SDS011;37886;53.174;6.368;2023-11-21T07:04:35;50.80;;;10.73;;
51838;SDS011;37886;53.174;6.368;2023-11-21T07:07:04;51.08;;;10.93;;
51838;SDS011;37886;53.174;6.368;2023-11-21T07:09:32;39.92;;;9.63;;
51838;SDS011;37886;53.174;6.368;2023-11-21T07:11:57;37.30;;;9.45;;
51838;SDS011;37886;53.174;6.368;2023-11-21T07:14:23;27.58;;;8.48;;
51838;SDS011;37886;53.174;6.368;2023-11-21T07:16:49;33.42;;;10.00;;
51838;SDS011;37886;53.174;6.368;2023-11-21T07:19:14;28.55;;;9.40;;
51838;SDS011;37886;53.174;6.368;2023-11-21T07:21:40;41.15;;;10.57;;
51838;SDS011;37886;53.174;6.368;2023-11-21T07:24:07;35.40;;;10.30;;
51838;SDS011;37886;53.174;6.368;2023-11-21T07:26:33;42.90;;;11.85;;
51838;SDS011;37886;53.174;6.368;2023-11-21T07:29:00;34.58;;;11.00;;
51838;SDS011;37886;53.174;6.368;2023-11-21T07:31:28;46.67;;;11.57;;
51838;SDS011;37886;53.174;6.368;2023-11-21T07:33:54;45.05;;;11.73;;
51838;SDS011;37886;53.174;6.368;2023-11-21T07:36:22;32.03;;;10.07;;
51838;SDS011;37886;53.174;6.368;2023-11-21T07:38:48;35.70;;;11.10;;
51838;SDS011;37886;53.174;6.368;2023-11-21T07:41:15;39.13;;;11.55;;
51838;SDS011;37886;53.174;6.368;2023-11-21T07:43:42;35.72;;;11.75;;
51838;SDS011;37886;53.174;6.368;2023-11-21T07:46:09;45.67;;;13.20;;
51838;SDS011;37886;53.174;6.368;2023-11-21T07:48:37;46.55;;;14.20;;
51838;SDS011;37886;53.174;6.368;2023-11-21T07:51:04;39.20;;;12.85;;
51838;SDS011;37886;53.174;6.368;2023-11-21T07:53:32;48.65;;;14.07;;
51838;SDS011;37886;53.174;6.368;2023-11-21T07:55:58;43.38;;;13.38;;
51838;SDS011;37886;53.174;6.368;2023-11-21T07:58:28;49.63;;;13.80;;
51838;SDS011;37886;53.174;6.368;2023-11-21T08:00:53;48.80;;;14.85;;
51838;SDS011;37886;53.174;6.368;2023-11-21T08:03:19;47.35;;;14.10;;
51838;SDS011;37886;53.174;6.368;2023-11-21T08:05:46;50.75;;;14.07;;
51838;SDS011;37886;53.174;6.368;2023-11-21T08:08:12;44.90;;;14.23;;
51838;SDS011;37886;53.174;6.368;2023-11-21T08:10:37;42.08;;;13.50;;
51838;SDS011;37886;53.174;6.368;2023-11-21T08:13:04;39.13;;;12.60;;
51838;SDS011;37886;53.174;6.368;2023-11-21T08:15:31;45.85;;;15.00;;
51838;SDS011;37886;53.174;6.368;2023-11-21T08:17:57;46.25;;;14.48;;
51838;SDS011;37886;53.174;6.368;2023-11-21T08:20:26;45.45;;;14.88;;
51838;SDS011;37886;53.174;6.368;2023-11-21T08:22:53;45.63;;;14.65;;
51838;SDS011;37886;53.174;6.368;2023-11-21T08:25:20;48.22;;;14.40;;
51838;SDS011;37886;53.174;6.368;2023-11-21T08:27:46;43.72;;;13.90;;
51838;SDS011;37886;53.174;6.368;2023-11-21T08:30:12;45.45;;;14.68;;
51838;SDS011;37886;53.174;6.368;2023-11-21T08:32:39;44.22;;;14.65;;
51838;SDS011;37886;53.174;6.368;2023-11-21T08:35:07;40.88;;;13.98;;
51838;SDS011;37886;53.174;6.368;2023-11-21T08:37:33;38.35;;;14.32;;
51838;SDS011;37886;53.174;6.368;2023-11-21T08:40:02;41.85;;;14.75;;
51838;SDS011;37886;53.174;6.368;2023-11-21T08:42:30;39.60;;;14.02;;
51838;SDS011;37886;53.174;6.368;2023-11-21T08:44:56;38.30;;;14.25;;
51838;SDS011;37886;53.174;6.368;2023-11-21T08:47:24;42.00;;;14.98;;
51838;SDS011;37886;53.174;6.368;2023-11-21T08:49:51;40.38;;;13.57;;
51838;SDS011;37886;53.174;6.368;2023-11-21T08:52:19;37.17;;;13.88;;
51838;SDS011;37886;53.174;6.368;2023-11-21T08:54:51;41.67;;;14.50;;
51838;SDS011;37886;53.174;6.368;2023-11-21T08:57:24;43.75;;;14.30;;
51838;SDS011;37886;53.174;6.368;2023-11-21T08:59:50;36.83;;;13.27;;
51838;SDS011;37886;53.174;6.368;2023-11-21T09:02:25;33.80;;;12.67;;
51838;SDS011;37886;53.174;6.368;2023-11-21T09:04:51;36.58;;;12.07;;
51838;SDS011;37886;53.174;6.368;2023-11-21T09:07:18;30.92;;;12.07;;
51838;SDS011;37886;53.174;6.368;2023-11-21T09:09:46;21.92;;;10.75;;
51838;SDS011;37886;53.174;6.368;2023-11-21T09:12:12;24.67;;;10.68;;
51838;SDS011;37886;53.174;6.368;2023-11-21T09:14:38;21.60;;;9.82;;
51838;SDS011;37886;53.174;6.368;2023-11-21T09:17:04;24.10;;;9.55;;
51838;SDS011;37886;53.174;6.368;2023-11-21T09:19:36;19.67;;;9.50;;
51838;SDS011;37886;53.174;6.368;2023-11-21T09:22:06;19.37;;;7.83;;
51838;SDS011;37886;53.174;6.368;2023-11-21T09:24:32;15.68;;;7.32;;
51838;SDS011;37886;53.174;6.368;2023-11-21T09:26:58;13.85;;;6.30;;
51838;SDS011;37886;53.174;6.368;2023-11-21T09:29:28;17.98;;;6.72;;
51838;SDS011;37886;53.174;6.368;2023-11-21T09:31:54;12.52;;;6.00;;
51838;SDS011;37886;53.174;6.368;2023-11-21T09:34:21;14.48;;;6.00;;
51838;SDS011;37886;53.174;6.368;2023-11-21T09:36:47;13.95;;;6.70;;
51838;SDS011;37886;53.174;6.368;2023-11-21T09:39:13;13.63;;;6.25;;
51838;SDS011;37886;53.174;6.368;2023-11-21T09:44:09;12.27;;;6.22;;
51838;SDS011;37886;53.174;6.368;2023-11-21T09:46:42;16.60;;;6.22;;
51838;SDS011;37886;53.174;6.368;2023-11-21T09:49:11;12.32;;;5.85;;
51838;SDS011;37886;53.174;6.368;2023-11-21T09:51:44;12.88;;;6.10;;
51838;SDS011;37886;53.174;6.368;2023-11-21T09:54:12;11.52;;;5.53;;
51838;SDS011;37886;53.174;6.368;2023-11-21T09:56:41;15.88;;;5.57;;
51838;SDS011;37886;53.174;6.368;2023-11-21T09:59:07;10.23;;;5.07;;
51838;SDS011;37886;53.174;6.368;2023-11-21T10:01:41;12.13;;;5.32;;
51838;SDS011;37886;53.174;6.368;2023-11-21T10:04:07;12.73;;;5.13;;
51838;SDS011;37886;53.174;6.368;2023-11-21T10:06:39;13.60;;;6.20;;
51838;SDS011;37886;53.174;6.368;2023-11-21T10:09:10;11.73;;;5.80;;
51838;SDS011;37886;53.174;6.368;2023-11-21T10:11:42;11.20;;;5.68;;
51838;SDS011;37886;53.174;6.368;2023-11-21T10:14:10;10.77;;;5.93;;
51838;SDS011;37886;53.174;6.368;2023-11-21T10:16:38;11.10;;;5.60;;
51838;SDS011;37886;53.174;6.368;2023-11-21T10:19:06;9.35;;;4.88;;
51838;SDS011;37886;53.174;6.368;2023-11-21T10:21:35;11.07;;;5.47;;
51838;SDS011;37886;53.174;6.368;2023-11-21T10:24:01;11.43;;;5.38;;
51838;SDS011;37886;53.174;6.368;2023-11-21T10:26:27;15.10;;;5.90;;
51838;SDS011;37886;53.174;6.368;2023-11-21T10:29:00;10.95;;;5.22;;
51838;SDS011;37886;53.174;6.368;2023-11-21T10:31:30;13.95;;;5.85;;
51838;SDS011;37886;53.174;6.368;2023-11-21T10:34:14;11.10;;;5.85;;
51838;SDS011;37886;53.174;6.368;2023-11-21T10:36:44;11.20;;;5.40;;
51838;SDS011;37886;53.174;6.368;2023-11-21T10:39:14;11.77;;;5.45;;
51838;SDS011;37886;53.174;6.368;2023-11-21T10:41:45;10.93;;;4.88;;
51838;SDS011;37886;53.174;6.368;2023-11-21T10:44:15;10.85;;;5.43;;
51838;SDS011;37886;53.174;6.368;2023-11-21T10:46:52;9.02;;;4.68;;
51838;SDS011;37886;53.174;6.368;2023-11-21T10:49:25;10.85;;;4.40;;
51838;SDS011;37886;53.174;6.368;2023-11-21T10:51:52;13.13;;;4.70;;
51838;SDS011;37886;53.174;6.368;2023-11-21T10:54:19;10.68;;;4.63;;
51838;SDS011;37886;53.174;6.368;2023-11-21T10:56:46;9.00;;;4.00;;
51838;SDS011;37886;53.174;6.368;2023-11-21T10:59:16;7.72;;;3.88;;
51838;SDS011;37886;53.174;6.368;2023-11-21T11:01:44;7.10;;;3.83;;
51838;SDS011;37886;53.174;6.368;2023-11-21T11:04:14;7.97;;;4.03;;
51838;SDS011;37886;53.174;6.368;2023-11-21T11:06:43;6.32;;;3.50;;
51838;SDS011;37886;53.174;6.368;2023-11-21T11:09:12;8.68;;;4.03;;
51838;SDS011;37886;53.174;6.368;2023-11-21T11:11:39;11.43;;;4.23;;
51838;SDS011;37886;53.174;6.368;2023-11-21T11:14:07;8.20;;;3.90;;
51838;SDS011;37886;53.174;6.368;2023-11-21T11:16:36;6.60;;;3.47;;
51838;SDS011;37886;53.174;6.368;2023-11-21T11:19:06;7.95;;;3.90;;
51838;SDS011;37886;53.174;6.368;2023-11-21T11:35:44;9.90;;;4.30;;
51838;SDS011;37886;53.174;6.368;2023-11-21T11:38:20;7.78;;;4.35;;
51838;SDS011;37886;53.174;6.368;2023-11-21T11:40:47;6.95;;;3.90;;
51838;SDS011;37886;53.174;6.368;2023-11-21T11:43:24;7.45;;;3.72;;
51838;SDS011;37886;53.174;6.368;2023-11-21T11:45:51;7.35;;;3.50;;
51838;SDS011;37886;53.174;6.368;2023-11-21T11:48:19;7.75;;;3.72;;
51838;SDS011;37886;53.174;6.368;2023-11-21T11:51:03;11.40;;;3.30;;
51838;SDS011;37886;53.174;6.368;2023-11-21T11:53:51;11.05;;;3.53;;
51838;SDS011;37886;53.174;6.368;2023-11-21T11:58:51;7.90;;;2.95;;
51838;SDS011;37886;53.174;6.368;2023-11-21T12:01:19;11.48;;;3.20;;
51838;SDS011;37886;53.174;6.368;2023-11-21T12:06:39;5.20;;;2.45;;
51838;SDS011;37886;53.174;6.368;2023-11-21T12:09:18;7.93;;;3.08;;
51838;SDS011;37886;53.174;6.368;2023-11-21T12:11:47;6.63;;;2.88;;
51838;SDS011;37886;53.174;6.368;2023-11-21T12:14:16;9.57;;;2.80;;
51838;SDS011;37886;53.174;6.368;2023-11-21T12:16:43;7.07;;;2.42;;
51838;SDS011;37886;53.174;6.368;2023-11-21T12:19:12;7.15;;;2.45;;
51838;SDS011;37886;53.174;6.368;2023-11-21T12:21:38;8.65;;;2.85;;
51838;SDS011;37886;53.174;6.368;2023-11-21T12:24:07;6.55;;;2.95;;
51838;SDS011;37886;53.174;6.368;2023-11-21T12:26:39;6.13;;;2.15;;
51838;SDS011;37886;53.174;6.368;2023-11-21T12:29:05;4.97;;;2.28;;
51838;SDS011;37886;53.174;6.368;2023-11-21T12:31:33;5.80;;;2.83;;
51838;SDS011;37886;53.174;6.368;2023-11-21T12:33:59;4.50;;;2.25;;
51838;SDS011;37886;53.174;6.368;2023-11-21T12:36:25;10.23;;;2.50;;
51838;SDS011;37886;53.174;6.368;2023-11-21T12:38:51;8.95;;;2.45;;
51838;SDS011;37886;53.174;6.368;2023-11-21T12:41:17;15.88;;;2.70;;
51838;SDS011;37886;53.174;6.368;2023-11-21T12:43:43;6.45;;;2.10;;
51838;SDS011;37886;53.174;6.368;2023-11-21T12:46:10;7.90;;;2.33;;
51838;SDS011;37886;53.174;6.368;2023-11-21T12:48:39;5.05;;;2.00;;
51838;SDS011;37886;53.174;6.368;2023-11-21T12:51:10;9.20;;;2.72;;
51838;SDS011;37886;53.174;6.368;2023-11-21T12:53:40;5.53;;;2.42;;
51838;SDS011;37886;53.174;6.368;2023-11-21T12:56:07;5.72;;;2.55;;
51838;SDS011;37886;53.174;6.368;2023-11-21T12:58:40;5.20;;;2.17;;
51838;SDS011;37886;53.174;6.368;2023-11-21T13:01:12;5.70;;;2.20;;
51838;SDS011;37886;53.174;6.368;2023-11-21T13:03:43;6.13;;;2.25;;
51838;SDS011;37886;53.174;6.368;2023-11-21T13:06:10;6.68;;;2.55;;
51838;SDS011;37886;53.174;6.368;2023-11-21T13:08:37;5.30;;;2.28;;
51838;SDS011;37886;53.174;6.368;2023-11-21T13:11:04;11.35;;;2.95;;
51838;SDS011;37886;53.174;6.368;2023-11-21T13:13:31;6.85;;;2.40;;
51838;SDS011;37886;53.174;6.368;2023-11-21T13:15:59;7.93;;;2.08;;
51838;SDS011;37886;53.174;6.368;2023-11-21T13:18:27;6.55;;;2.50;;
51838;SDS011;37886;53.174;6.368;2023-11-21T13:21:11;5.82;;;2.45;;
51838;SDS011;37886;53.174;6.368;2023-11-21T13:23:39;9.10;;;2.65;;
51838;SDS011;37886;53.174;6.368;2023-11-21T13:26:06;6.32;;;2.60;;
51838;SDS011;37886;53.174;6.368;2023-11-21T13:28:33;12.43;;;2.58;;
51838;SDS011;37886;53.174;6.368;2023-11-21T13:31:01;9.65;;;2.60;;
51838;SDS011;37886;53.174;6.368;2023-11-21T13:33:34;6.68;;;2.60;;
51838;SDS011;37886;53.174;6.368;2023-11-21T13:36:03;10.07;;;2.50;;
51838;SDS011;37886;53.174;6.368;2023-11-21T13:38:34;6.05;;;2.67;;
51838;SDS011;37886;53.174;6.368;2023-11-21T13:41:02;9.25;;;2.70;;
51838;SDS011;37886;53.174;6.368;2023-11-21T13:43:32;5.78;;;2.53;;
51838;SDS011;37886;53.174;6.368;2023-11-21T13:45:58;14.63;;;2.83;;
51838;SDS011;37886;53.174;6.368;2023-11-21T13:48:35;9.38;;;2.20;;
51838;SDS011;37886;53.174;6.368;2023-11-21T13:51:07;7.65;;;2.65;;
51838;SDS011;37886;53.174;6.368;2023-11-21T13:53:38;6.82;;;2.60;;
51838;SDS011;37886;53.174;6.368;2023-11-21T13:56:05;7.78;;;2.40;;
51838;SDS011;37886;53.174;6.368;2023-11-21T13:58:31;6.40;;;2.40;;
51838;SDS011;37886;53.174;6.368;2023-11-21T14:01:19;5.47;;;1.95;;
51838;SDS011;37886;53.174;6.368;2023-11-21T14:03:55;6.80;;;2.15;;
51838;SDS011;37886;53.174;6.368;2023-11-21T14:06:27;6.38;;;2.13;;
51838;SDS011;37886;53.174;6.368;2023-11-21T14:09:00;8.27;;;2.25;;
51838;SDS011;37886;53.174;6.368;2023-11-21T14:13:56;8.60;;;2.55;;
51838;SDS011;37886;53.174;6.368;2023-11-21T14:16:24;7.85;;;2.38;;
51838;SDS011;37886;53.174;6.368;2023-11-21T14:18:50;5.63;;;2.33;;
51838;SDS011;37886;53.174;6.368;2023-11-21T14:21:26;4.40;;;1.95;;
51838;SDS011;37886;53.174;6.368;2023-11-21T14:23:52;6.28;;;1.98;;
51838;SDS011;37886;53.174;6.368;2023-11-21T14:26:20;6.32;;;1.90;;
51838;SDS011;37886;53.174;6.368;2023-11-21T14:28:46;5.10;;;2.05;;
51838;SDS011;37886;53.174;6.368;2023-11-21T14:31:14;4.28;;;1.83;;
51838;SDS011;37886;53.174;6.368;2023-11-21T14:33:42;7.65;;;1.95;;
51838;SDS011;37886;53.174;6.368;2023-11-21T14:36:09;5.15;;;1.90;;
51838;SDS011;37886;53.174;6.368;2023-11-21T14:38:35;6.72;;;1.50;;
51838;SDS011;37886;53.174;6.368;2023-11-21T14:41:05;5.28;;;1.80;;
51838;SDS011;37886;53.174;6.368;2023-11-21T14:43:33;11.43;;;1.95;;
51838;SDS011;37886;53.174;6.368;2023-11-21T14:46:01;6.50;;;1.98;;
51838;SDS011;37886;53.174;6.368;2023-11-21T14:48:29;3.08;;;1.40;;
51838;SDS011;37886;53.174;6.368;2023-11-21T14:51:15;6.78;;;2.00;;
51838;SDS011;37886;53.174;6.368;2023-11-21T14:53:55;7.93;;;2.08;;
51838;SDS011;37886;53.174;6.368;2023-11-21T14:56:26;3.53;;;1.80;;
51838;SDS011;37886;53.174;6.368;2023-11-21T14:58:56;6.25;;;1.38;;
51838;SDS011;37886;53.174;6.368;2023-11-21T15:01:25;4.47;;;1.75;;
51838;SDS011;37886;53.174;6.368;2023-11-21T15:04:20;4.70;;;1.75;;